Time;durP1;ratioP1;P1;durP2;ratioP2;P2;SDS_P1;SDS_P2;PMS_P1;PMS_P2;Temp;Humidity;BMP_temperature;BMP_pressure;BME280_temperature;BME280_humidity;BME280_pressure;Samples;Min_cycle;Max_cycle;Signal;HPM_P1;HPM_P2
2022/03/28 00:00:17;;;;;;;18.92;9.07;;;;;;;6.75;69.21;102644.59;5034674;28;20395;-84
2022/03/28 00:02:44;;;;;;;16.67;8.10;;;;;;;6.72;69.17;102628.16;5036941;28;20018;-84
2022/03/28 00:05:10;;;;;;;20.70;8.38;;;;;;;6.71;69.28;102636.75;5013333;28;20504;-85
2022/03/28 00:07:35;;;;;;;18.88;8.52;;;;;;;6.66;68.89;102636.69;5031238;28;20105;-84
2022/03/28 00:10:01;;;;;;;22.50;7.93;;;;;;;6.65;69.29;102629.75;5032396;28;20063;-85
2022/03/28 00:12:26;;;;;;;16.98;7.88;;;;;;;6.61;70.09;102633.97;5039314;28;20473;-84
2022/03/28 00:14:51;;;;;;;18.60;8.57;;;;;;;6.58;69.61;102620.97;5034826;28;20102;-84
2022/03/28 00:17:17;;;;;;;21.42;8.73;;;;;;;6.55;69.56;102613.19;5044733;28;20032;-84
2022/03/28 00:19:42;;;;;;;20.45;8.40;;;;;;;6.53;69.79;102612.28;5042791;28;20522;-85
2022/03/28 00:22:08;;;;;;;20.65;8.25;;;;;;;6.51;69.96;102614.81;5035103;28;20026;-84
2022/03/28 00:24:33;;;;;;;17.50;7.63;;;;;;;6.47;69.66;102606.97;5035085;28;20033;-85
2022/03/28 00:26:58;;;;;;;18.17;7.75;;;;;;;6.44;70.21;102602.63;5034975;28;20029;-84
2022/03/28 00:29:24;;;;;;;15.95;7.50;;;;;;;6.43;69.32;102600.00;5035219;28;20048;-84
2022/03/28 00:31:49;;;;;;;20.30;7.85;;;;;;;6.37;69.69;102600.75;5035465;28;20044;-84
2022/03/28 00:34:15;;;;;;;16.90;7.15;;;;;;;6.31;69.46;102585.13;5039936;28;20029;-84
2022/03/28 00:36:41;;;;;;;13.88;7.43;;;;;;;6.27;70.18;102593.66;5045153;28;20025;-86
2022/03/28 00:39:07;;;;;;;15.70;7.28;;;;;;;6.25;70.08;102579.81;5041069;28;20064;-84
2022/03/28 00:41:32;;;;;;;15.98;7.20;;;;;;;6.25;70.20;102582.41;5045563;28;20106;-84
2022/03/28 00:43:59;;;;;;;21.25;7.28;;;;;;;6.23;70.40;102577.22;5034387;28;20358;-84
2022/03/28 00:46:25;;;;;;;19.33;7.65;;;;;;;6.20;70.16;102572.00;5034577;28;20025;-84
2022/03/28 00:48:51;;;;;;;17.67;7.50;;;;;;;6.17;70.45;102567.59;5034309;28;20495;-84
2022/03/28 00:51:18;;;;;;;16.15;7.85;;;;;;;6.13;70.34;102565.81;5044649;28;20032;-84
2022/03/28 00:53:44;;;;;;;15.88;7.13;;;;;;;6.13;70.50;102562.34;5034236;28;20045;-84
2022/03/28 00:56:11;;;;;;;14.43;6.38;;;;;;;6.09;70.46;102553.66;5034262;28;20025;-84
2022/03/28 00:58:36;;;;;;;15.40;6.30;;;;;;;6.04;70.25;102561.34;5034582;28;20022;-84
2022/03/28 01:01:02;;;;;;;15.27;6.47;;;;;;;6.02;70.20;102564.72;5044191;28;20090;-84
2022/03/28 01:03:27;;;;;;;14.13;6.00;;;;;;;5.99;70.54;102562.00;5034655;28;20033;-84
2022/03/28 01:05:53;;;;;;;15.52;7.30;;;;;;;5.98;70.64;102557.72;5033962;28;20068;-84
2022/03/28 01:08:18;;;;;;;16.83;6.88;;;;;;;5.96;71.04;102557.66;5034193;28;20040;-84
2022/03/28 01:10:47;;;;;;;13.43;6.07;;;;;;;5.95;70.90;102558.50;5033854;28;20040;-84
2022/03/28 01:13:13;;;;;;;13.07;6.63;;;;;;;5.92;71.09;102548.09;5033992;28;20029;-84
2022/03/28 01:15:38;;;;;;;16.48;6.00;;;;;;;5.90;70.58;102549.78;5033946;28;20439;-84
2022/03/28 01:18:06;;;;;;;16.52;6.20;;;;;;;5.90;70.64;102544.59;5034425;28;20064;-85
2022/03/28 01:20:35;;;;;;;14.95;6.53;;;;;;;5.90;70.81;102536.84;5039365;28;20116;-84
2022/03/28 01:23:00;;;;;;;12.48;5.95;;;;;;;5.89;71.04;102540.31;5039220;28;20037;-84
2022/03/28 01:25:29;;;;;;;13.88;5.68;;;;;;;5.90;70.92;102542.91;5033829;28;20056;-84
2022/03/28 01:27:55;;;;;;;12.63;5.75;;;;;;;5.91;71.50;102536.03;5033731;28;20148;-84
2022/03/28 01:30:22;;;;;;;18.55;7.38;;;;;;;5.96;72.19;102541.31;5015592;28;20430;-84
2022/03/28 01:32:48;;;;;;;17.85;6.80;;;;;;;5.96;71.85;102537.00;5037557;28;20115;-84
2022/03/28 01:35:28;;;;;;;20.73;6.63;;;;;;;5.96;71.19;102530.97;5053319;28;20021;-84
2022/03/28 01:37:53;;;;;;;19.67;7.18;;;;;;;5.92;71.81;102535.19;5043098;28;20547;-84
2022/03/28 01:40:18;;;;;;;14.32;6.75;;;;;;;5.91;71.76;102523.09;5041879;28;20092;-84
2022/03/28 01:42:45;;;;;;;13.55;6.28;;;;;;;5.90;71.44;102513.63;5036736;28;20022;-84
2022/03/28 01:45:11;;;;;;;17.13;7.10;;;;;;;5.89;72.66;102507.59;5015394;28;20041;-84
2022/03/28 01:47:37;;;;;;;17.05;6.93;;;;;;;5.91;72.60;102517.94;5035275;28;20103;-84
2022/03/28 01:50:03;;;;;;;15.45;6.18;;;;;;;5.88;72.56;102517.91;5033347;28;20018;-84
2022/03/28 01:52:29;;;;;;;18.83;6.57;;;;;;;5.85;71.74;102507.50;5038326;28;20376;-84
2022/03/28 01:54:54;;;;;;;16.55;6.38;;;;;;;5.83;71.96;102509.19;5021032;28;20021;-84
2022/03/28 01:57:19;;;;;;;17.70;6.40;;;;;;;5.83;71.78;102509.19;5033149;28;20039;-84
2022/03/28 01:59:44;;;;;;;17.13;6.35;;;;;;;5.79;72.03;102516.00;5033238;28;20021;-84
2022/03/28 02:02:10;;;;;;;12.32;5.80;;;;;;;5.79;71.80;102505.66;5039218;28;20064;-84
2022/03/28 02:04:35;;;;;;;14.15;6.32;;;;;;;5.79;72.33;102505.66;5032841;28;20029;-84
2022/03/28 02:07:00;;;;;;;15.20;6.00;;;;;;;5.77;72.47;102505.63;5036216;28;20094;-84
2022/03/28 02:09:25;;;;;;;16.60;6.47;;;;;;;5.76;72.09;102505.59;5044643;28;20036;-84
2022/03/28 02:11:51;;;;;;;13.27;5.85;;;;;;;5.73;72.02;102495.19;5049033;28;20530;-84
2022/03/28 02:14:16;;;;;;;14.02;6.07;;;;;;;5.68;72.19;102499.38;5032824;28;20065;-84
2022/03/28 02:16:41;;;;;;;15.40;6.45;;;;;;;5.67;72.63;102497.63;5032637;28;20028;-84
2022/03/28 02:19:06;;;;;;;15.10;6.07;;;;;;;5.62;72.53;102500.13;5032941;28;20451;-84
2022/03/28 02:21:32;;;;;;;14.20;7.13;;;;;;;5.60;73.10;102499.22;5048562;28;20036;-84
2022/03/28 02:23:59;;;;;;;18.02;6.57;;;;;;;5.59;73.33;102503.53;5032453;28;20033;-84
2022/03/28 02:26:25;;;;;;;14.75;6.40;;;;;;;5.61;73.48;102499.28;5014916;28;20171;-84
2022/03/28 02:28:50;;;;;;;15.25;6.22;;;;;;;5.62;72.97;102495.84;5041617;28;20140;-84
2022/03/28 02:31:15;;;;;;;14.68;6.18;;;;;;;5.61;73.04;102493.22;5034831;28;20037;-84
2022/03/28 02:33:41;;;;;;;13.82;6.20;;;;;;;5.58;72.89;102488.88;5032381;28;20039;-84
2022/03/28 02:36:06;;;;;;;18.73;6.70;;;;;;;5.60;72.42;102486.31;5014532;28;20041;-84
2022/03/28 02:38:31;;;;;;;18.10;6.90;;;;;;;5.59;72.97;102484.56;5032016;28;20106;-84
2022/03/28 02:40:59;;;;;;;12.40;5.53;;;;;;;5.56;73.83;102487.97;5032362;28;20475;-84
2022/03/28 02:43:25;;;;;;;17.92;6.22;;;;;;;5.56;74.11;102482.81;5015329;28;20408;-84
2022/03/28 02:45:50;;;;;;;14.60;6.45;;;;;;;5.59;73.64;102476.81;5031982;28;20040;-84
2022/03/28 02:48:15;;;;;;;16.63;6.13;;;;;;;5.59;73.43;102474.22;5046552;28;20033;-84
2022/03/28 02:50:41;;;;;;;11.13;5.47;;;;;;;5.56;72.00;102475.06;5050741;28;20429;-84
2022/03/28 02:53:06;;;;;;;16.67;5.65;;;;;;;5.50;71.96;102479.22;5031898;28;20468;-84
2022/03/28 02:55:31;;;;;;;15.63;6.10;;;;;;;5.49;72.70;102465.41;5033115;28;20060;-84
2022/03/28 02:57:57;;;;;;;13.95;5.78;;;;;;;5.48;73.40;102455.94;5034382;28;20094;-84
2022/03/28 03:00:22;;;;;;;14.93;6.28;;;;;;;5.47;73.18;102454.19;5049253;28;20464;-84
2022/03/28 03:02:47;;;;;;;16.55;5.97;;;;;;;5.44;72.75;102456.72;5031699;28;20053;-84
2022/03/28 03:05:13;;;;;;;13.77;6.03;;;;;;;5.43;73.42;102452.41;5031895;28;20036;-84
2022/03/28 03:07:39;;;;;;;15.85;6.80;;;;;;;5.41;73.61;102449.78;5039643;28;20029;-84
2022/03/28 03:10:05;;;;;;;15.57;6.50;;;;;;;5.38;74.35;102443.69;5029850;28;20041;-84
2022/03/28 03:12:31;;;;;;;15.77;6.93;;;;;;;5.34;74.49;102449.59;5042445;28;21119;-84
2022/03/28 03:14:56;;;;;;;19.02;6.57;;;;;;;5.31;74.44;102446.13;5028722;28;20464;-84
2022/03/28 03:17:22;;;;;;;11.75;6.03;;;;;;;5.28;74.07;102447.75;5020378;28;20033;-84
2022/03/28 03:19:47;;;;;;;15.75;5.97;;;;;;;5.24;74.19;102436.50;5031323;28;20034;-84
2022/03/28 03:22:16;;;;;;;17.48;7.00;;;;;;;5.22;74.47;102430.44;5034639;28;20031;-84
2022/03/28 03:24:45;;;;;;;16.92;7.03;;;;;;;5.20;74.73;102434.69;5051420;28;20037;-84
2022/03/28 03:27:12;;;;;;;16.73;7.32;;;;;;;5.23;74.28;102439.94;5036434;28;20025;-84
2022/03/28 03:29:37;;;;;;;18.70;7.95;;;;;;;5.23;74.04;102433.88;5033520;28;20042;-84
2022/03/28 03:32:03;;;;;;;16.50;7.05;;;;;;;5.16;73.86;102436.34;5024496;28;20095;-84
2022/03/28 03:34:29;;;;;;;10.32;4.47;;;;;;;5.13;72.32;102437.97;5045794;28;20113;-84
2022/03/28 03:36:54;;;;;;;14.93;5.93;;;;;;;5.13;74.29;102432.78;5035294;28;20108;-84
2022/03/28 03:39:22;;;;;;;11.02;5.18;;;;;;;5.13;74.08;102432.78;5038532;28;20086;-84
2022/03/28 03:41:47;;;;;;;12.32;5.72;;;;;;;5.10;73.54;102437.91;5031150;28;20037;-84
2022/03/28 03:44:12;;;;;;;11.18;5.03;;;;;;;5.07;72.74;102427.53;5047046;28;20033;-84
2022/03/28 03:46:38;;;;;;;12.35;5.57;;;;;;;5.04;73.27;102433.47;5047392;28;20101;-84
2022/03/28 03:49:03;;;;;;;14.25;5.70;;;;;;;5.06;73.33;102426.63;5036184;28;20036;-84
2022/03/28 03:51:28;;;;;;;15.13;5.68;;;;;;;5.05;73.47;102426.59;5035328;28;20025;-84
2022/03/28 03:53:54;;;;;;;17.00;6.03;;;;;;;4.99;73.91;102420.47;5035288;28;20472;-84
2022/03/28 03:56:19;;;;;;;16.60;6.22;;;;;;;4.98;74.26;102413.56;5034985;28;20032;-83
2022/03/28 03:58:45;;;;;;;12.85;5.43;;;;;;;4.97;73.83;102416.13;5041636;28;20029;-84
2022/03/28 04:01:10;;;;;;;11.68;5.40;;;;;;;4.96;74.25;102410.06;5034955;28;20049;-84
2022/03/28 04:03:36;;;;;;;12.52;5.82;;;;;;;4.97;74.01;102414.41;5034938;28;20029;-84
2022/03/28 04:06:02;;;;;;;17.77;6.40;;;;;;;4.97;74.07;102406.66;5035455;28;20048;-84
2022/03/28 04:08:27;;;;;;;20.65;5.22;;;;;;;4.94;73.97;102406.63;5038545;28;20461;-84
2022/03/28 04:10:53;;;;;;;12.00;5.15;;;;;;;4.94;74.49;102401.47;5044362;28;20029;-84
2022/03/28 04:13:19;;;;;;;14.88;5.47;;;;;;;4.91;75.31;102398.81;5038645;28;20036;-84
2022/03/28 04:15:44;;;;;;;13.77;5.80;;;;;;;4.90;75.06;102398.75;5034712;28;20029;-84
2022/03/28 04:18:10;;;;;;;12.98;5.00;;;;;;;4.84;74.99;102394.31;5037946;28;20047;-84
2022/03/28 04:20:35;;;;;;;14.48;5.22;;;;;;;4.84;74.69;102394.31;5040122;28;20048;-84
2022/03/28 04:23:01;;;;;;;11.48;4.88;;;;;;;4.81;73.81;102397.72;5035806;28;20108;-84
2022/03/28 04:25:26;;;;;;;9.88;4.43;;;;;;;4.79;73.58;102388.19;5034738;28;20025;-84
2022/03/28 04:27:52;;;;;;;12.55;4.13;;;;;;;4.78;73.37;102394.19;5036679;28;20034;-84
2022/03/28 04:30:17;;;;;;;11.43;5.15;;;;;;;4.77;74.18;102382.13;5034501;28;20053;-84
2022/03/28 04:32:43;;;;;;;16.70;5.70;;;;;;;4.75;75.26;102382.09;5034698;28;20498;-84
2022/03/28 04:35:11;;;;;;;12.82;5.63;;;;;;;4.75;75.19;102378.66;5034340;28;20032;-84
2022/03/28 04:37:38;;;;;;;13.23;4.80;;;;;;;4.72;74.72;102384.59;5036390;28;20040;-84
2022/03/28 04:40:06;;;;;;;16.60;5.78;;;;;;;4.66;75.50;102380.16;5035473;28;20029;-84
2022/03/28 04:42:32;;;;;;;11.77;4.90;;;;;;;4.62;74.82;102393.81;5017289;28;20021;-84
2022/03/28 04:44:57;;;;;;;12.43;4.40;;;;;;;4.60;74.34;102392.94;5034618;28;20017;-84
2022/03/28 04:47:23;;;;;;;11.82;4.55;;;;;;;4.57;73.57;102395.44;5047685;28;20025;-84
2022/03/28 04:49:48;;;;;;;13.63;5.07;;;;;;;4.55;74.09;102391.94;5023833;28;20029;-84
2022/03/28 04:52:14;;;;;;;26.77;5.35;;;;;;;4.48;74.25;102392.59;5034528;28;20075;-83
2022/03/28 04:54:40;;;;;;;93.75;9.43;;;;;;;4.47;75.00;102393.44;5034108;28;20025;-83
2022/03/28 04:57:05;;;;;;;44.40;7.80;;;;;;;4.42;74.58;102397.63;5042969;28;20102;-83
2022/03/28 04:59:31;;;;;;;190.75;14.05;;;;;;;4.34;74.64;102403.44;5053501;28;20083;-83
2022/03/28 05:01:57;;;;;;;36.08;6.95;;;;;;;4.36;76.09;102403.47;5049095;28;20020;-83
2022/03/28 05:04:22;;;;;;;34.13;6.93;;;;;;;4.39;76.79;102407.03;5042378;28;20435;-83
2022/03/28 05:06:47;;;;;;;20.42;6.07;;;;;;;4.40;77.26;102405.28;5034205;28;20107;-84
2022/03/28 05:09:12;;;;;;;18.05;5.20;;;;;;;4.39;77.54;102406.13;5035523;28;20025;-84
2022/03/28 05:11:38;;;;;;;22.10;5.57;;;;;;;4.38;77.49;102400.13;5028230;28;20041;-84
2022/03/28 05:14:03;;;;;;;24.40;6.18;;;;;;;4.39;76.40;102396.72;5041017;28;20025;-84
2022/03/28 05:16:29;;;;;;;57.55;6.63;;;;;;;4.38;76.15;102389.81;5033854;28;20071;-83
2022/03/28 05:18:54;;;;;;;111.43;9.68;;;;;;;4.37;75.89;102398.38;5047027;28;20029;-83
2022/03/28 05:21:19;;;;;;;46.33;6.57;;;;;;;4.36;76.17;102396.63;5042645;28;20025;-84
2022/03/28 05:23:46;;;;;;;25.70;5.97;;;;;;;4.36;76.56;102383.75;5033871;28;20017;-83
2022/03/28 05:26:11;;;;;;;19.75;5.63;;;;;;;4.35;76.92;102384.56;5032871;28;20071;-84
2022/03/28 05:28:36;;;;;;;15.32;4.88;;;;;;;4.34;76.87;102382.84;5040499;28;20055;-84
2022/03/28 05:31:02;;;;;;;13.32;4.38;;;;;;;4.31;76.32;102385.31;5042732;28;20021;-84
2022/03/28 05:33:27;;;;;;;15.73;4.45;;;;;;;4.32;76.59;102388.78;5048786;28;20425;-87
2022/03/28 05:35:54;;;;;;;15.43;5.07;;;;;;;4.33;76.51;102385.38;5040388;28;20041;-84
2022/03/28 05:38:20;;;;;;;14.43;4.82;;;;;;;4.30;75.54;102393.03;5041055;28;20391;-84
2022/03/28 05:40:45;;;;;;;16.93;4.73;;;;;;;4.30;75.31;102395.59;5036554;28;20520;-85
2022/03/28 05:43:10;;;;;;;22.05;5.30;;;;;;;4.28;75.12;102389.53;5052260;28;20032;-84
2022/03/28 05:45:36;;;;;;;25.23;5.70;;;;;;;4.30;75.10;102383.59;5033183;28;20040;-84
2022/03/28 05:48:01;;;;;;;45.55;6.70;;;;;;;4.29;75.23;102389.56;5035044;28;20041;-84
2022/03/28 05:50:27;;;;;;;55.90;7.13;;;;;;;4.28;75.78;102387.81;5016557;28;20472;-84
2022/03/28 05:52:52;;;;;;;59.67;6.60;;;;;;;4.27;75.68;102385.22;5044276;28;20105;-83
2022/03/28 05:55:17;;;;;;;36.13;5.60;;;;;;;4.27;75.43;102386.06;5051613;28;20472;-85
2022/03/28 05:57:42;;;;;;;43.38;5.45;;;;;;;4.30;75.71;102387.88;5039794;28;20074;-84
2022/03/28 06:00:09;;;;;;;43.13;5.97;;;;;;;4.33;75.78;102383.66;5043337;28;21239;-85
2022/03/28 06:02:36;;;;;;;41.60;4.77;;;;;;;4.33;75.04;102383.66;5026036;28;20021;-84
2022/03/28 06:05:01;;;;;;;29.07;5.67;;;;;;;4.35;75.06;102381.16;5014963;28;20397;-84
2022/03/28 06:07:26;;;;;;;32.67;5.60;;;;;;;4.36;74.67;102380.28;5036345;28;20035;-84
2022/03/28 06:09:52;;;;;;;27.13;5.30;;;;;;;4.39;75.18;102376.09;5032296;28;20036;-85
2022/03/28 06:12:17;;;;;;;37.30;6.37;;;;;;;4.42;75.90;102379.59;5035687;28;20114;-84
2022/03/28 06:14:43;;;;;;;46.78;6.55;;;;;;;4.46;76.48;102377.13;5032839;28;20032;-84
2022/03/28 06:17:08;;;;;;;37.67;5.88;;;;;;;4.47;76.52;102375.41;5045244;28;20805;-84
2022/03/28 06:19:33;;;;;;;50.47;7.00;;;;;;;4.51;76.43;102366.91;5047343;28;20454;-84
2022/03/28 06:21:59;;;;;;;38.17;5.68;;;;;;;4.55;76.69;102361.84;5036035;28;20079;-83
2022/03/28 06:24:24;;;;;;;39.33;6.18;;;;;;;4.60;76.81;102369.72;5031493;28;20029;-84
2022/03/28 06:26:49;;;;;;;27.55;5.55;;;;;;;4.63;76.79;102363.75;5032005;28;20025;-84
2022/03/28 06:29:15;;;;;;;32.03;5.47;;;;;;;4.63;76.82;102364.63;5007490;28;20065;-84
2022/03/28 06:31:41;;;;;;;17.95;4.90;;;;;;;4.68;76.84;102363.03;5011418;28;20509;-84
2022/03/28 06:34:07;;;;;;;16.02;5.13;;;;;;;4.73;77.02;102363.13;5014486;28;20112;-84
2022/03/28 06:36:33;;;;;;;13.75;5.03;;;;;;;4.77;77.49;102364.94;5019400;28;20492;-84
2022/03/28 06:38:58;;;;;;;18.35;4.50;;;;;;;4.83;77.31;102359.06;5011577;28;20033;-84
2022/03/28 06:41:23;;;;;;;11.63;4.00;;;;;;;4.90;77.48;102357.47;5011726;28;20442;-84
2022/03/28 06:43:49;;;;;;;14.25;5.00;;;;;;;4.96;77.73;102367.94;5011857;28;20136;-84
2022/03/28 06:46:14;;;;;;;20.05;5.88;;;;;;;5.04;77.19;102362.97;5012163;28;20029;-84
2022/03/28 06:48:40;;;;;;;16.88;5.80;;;;;;;5.08;77.52;102357.88;5014961;28;20040;-84
2022/03/28 06:51:07;;;;;;;19.70;5.95;;;;;;;5.11;77.55;102360.53;5011792;28;20034;-84
2022/03/28 06:53:32;;;;;;;15.88;6.43;;;;;;;5.15;77.93;102362.34;5011977;28;20438;-84
2022/03/28 06:55:58;;;;;;;19.70;6.55;;;;;;;5.18;78.26;102353.81;5011660;28;20103;-84
2022/03/28 06:58:24;;;;;;;19.98;6.72;;;;;;;5.24;78.09;102348.78;5010276;28;20034;-84
2022/03/28 07:00:50;;;;;;;22.55;6.93;;;;;;;5.32;78.33;102360.13;5019580;28;20041;-84
2022/03/28 07:03:15;;;;;;;18.25;6.85;;;;;;;5.38;78.73;102355.94;5030101;28;20465;-84
2022/03/28 07:05:41;;;;;;;17.13;6.60;;;;;;;5.45;78.59;102350.06;5030458;28;20040;-84
2022/03/28 07:08:07;;;;;;;17.88;6.93;;;;;;;5.52;78.78;102353.63;5012808;28;20350;-84
2022/03/28 07:10:32;;;;;;;19.15;6.50;;;;;;;5.60;78.68;102352.06;5012101;28;20029;-84
2022/03/28 07:12:57;;;;;;;16.42;6.82;;;;;;;5.67;78.60;102353.03;5011846;28;20029;-84
2022/03/28 07:15:22;;;;;;;21.50;7.38;;;;;;;5.74;78.67;102344.59;5011912;28;20476;-84
2022/03/28 07:17:56;;;;;;;17.67;7.05;;;;;;;5.80;78.66;102343.81;5013926;28;20038;-84
2022/03/28 07:20:23;;;;;;;23.80;7.68;;;;;;;5.88;78.59;102332.78;5009655;28;20038;-84
2022/03/28 07:22:48;;;;;;;19.63;7.47;;;;;;;5.95;78.36;102338.06;5011811;28;20029;-84
2022/03/28 07:25:14;;;;;;;22.45;8.77;;;;;;;6.01;78.27;102338.19;5015041;28;20113;-84
2022/03/28 07:27:40;;;;;;;20.55;8.43;;;;;;;6.09;78.56;102336.63;5011176;28;20128;-85
2022/03/28 07:30:07;;;;;;;22.20;8.80;;;;;;;6.14;78.44;102337.59;5040430;28;20068;-84
2022/03/28 07:32:33;;;;;;;24.55;9.13;;;;;;;6.20;78.13;102334.22;5051318;28;20025;-85
2022/03/28 07:34:59;;;;;;;23.27;9.43;;;;;;;6.28;78.28;102331.78;5051373;28;20017;-84
2022/03/28 07:37:24;;;;;;;26.02;9.32;;;;;;;6.33;78.20;102327.53;5043460;28;20091;-84
2022/03/28 07:39:50;;;;;;;22.00;9.25;;;;;;;6.38;78.19;102329.34;5051321;28;20025;-85
2022/03/28 07:42:15;;;;;;;18.63;9.15;;;;;;;6.44;78.03;102328.59;5032097;28;20045;-85
2022/03/28 07:44:44;;;;;;;21.17;9.15;;;;;;;6.50;78.14;102325.22;5031114;28;20427;-84
2022/03/28 07:47:10;;;;;;;22.05;9.20;;;;;;;6.56;78.13;102325.31;5015920;28;20025;-84
2022/03/28 07:49:35;;;;;;;22.52;9.55;;;;;;;6.62;77.67;102319.38;5042639;28;20495;-85
2022/03/28 07:52:02;;;;;;;24.98;9.25;;;;;;;6.67;77.95;102321.16;5030051;28;20040;-85
2022/03/28 07:54:28;;;;;;;22.42;9.88;;;;;;;6.74;77.38;102316.94;5032446;28;20037;-85
2022/03/28 07:56:54;;;;;;;22.27;9.25;;;;;;;6.79;77.51;102317.88;5029001;28;20029;-85
2022/03/28 07:59:19;;;;;;;25.58;10.23;;;;;;;6.86;77.71;102315.38;5030165;28;20113;-85
2022/03/28 08:01:44;;;;;;;25.88;10.48;;;;;;;6.91;77.81;102309.44;5030667;28;20053;-85
2022/03/28 08:04:10;;;;;;;24.65;10.25;;;;;;;6.99;77.91;102322.47;5030594;28;20037;-85
2022/03/28 08:06:35;;;;;;;29.75;10.55;;;;;;;7.06;77.50;102316.50;5013177;28;20064;-85
2022/03/28 08:09:00;;;;;;;27.20;10.63;;;;;;;7.11;76.29;102301.91;5033101;28;20468;-84
2022/03/28 08:11:26;;;;;;;27.15;10.60;;;;;;;7.17;76.77;102301.13;5030904;28;20040;-85
2022/03/28 08:13:51;;;;;;;25.25;10.38;;;;;;;7.23;77.05;102290.84;5030405;28;20044;-85
2022/03/28 08:16:17;;;;;;;25.02;10.77;;;;;;;7.30;76.41;102278.84;5030818;28;20032;-85
2022/03/28 08:18:42;;;;;;;23.73;10.30;;;;;;;7.36;76.66;102283.19;5030650;28;20030;-84
2022/03/28 08:21:08;;;;;;;29.25;11.70;;;;;;;7.42;77.46;102281.53;5030497;28;20105;-85
2022/03/28 08:23:35;;;;;;;27.65;12.07;;;;;;;7.50;76.96;102288.53;5030958;28;20025;-85
2022/03/28 08:26:01;;;;;;;30.48;10.88;;;;;;;7.57;77.58;102296.38;5034292;28;20481;-85
2022/03/28 08:28:26;;;;;;;27.38;11.55;;;;;;;7.67;77.08;102294.75;5029671;28;20036;-85
2022/03/28 08:30:52;;;;;;;27.60;11.68;;;;;;;7.73;77.08;102289.63;5029579;28;20096;-85
2022/03/28 08:33:17;;;;;;;28.75;12.27;;;;;;;7.80;76.67;102287.94;5030757;28;20041;-85
2022/03/28 08:35:43;;;;;;;27.17;12.25;;;;;;;7.86;76.19;102285.44;5033573;28;20108;-85
2022/03/28 08:38:08;;;;;;;25.38;11.68;;;;;;;7.96;76.36;102280.31;5032870;28;20021;-85
2022/03/28 08:40:34;;;;;;;28.55;12.45;;;;;;;8.02;75.92;102272.59;5033188;28;20598;-85
2022/03/28 08:42:59;;;;;;;32.10;12.65;;;;;;;8.08;75.55;102274.38;5032533;28;20026;-85
2022/03/28 08:45:25;;;;;;;28.73;12.45;;;;;;;8.13;75.11;102264.91;5032810;28;20037;-85
2022/03/28 08:47:50;;;;;;;28.65;13.07;;;;;;;8.19;75.46;102262.38;5037518;28;20116;-85
2022/03/28 08:50:16;;;;;;;28.95;12.50;;;;;;;8.25;75.77;102259.81;5032886;28;20029;-86
2022/03/28 08:52:42;;;;;;;31.20;13.40;;;;;;;8.32;75.22;102266.78;5032918;28;20036;-85
2022/03/28 08:55:10;;;;;;;32.03;13.45;;;;;;;8.38;75.23;102262.47;5032891;28;20025;-85
2022/03/28 08:57:36;;;;;;;31.55;12.95;;;;;;;8.45;75.58;102266.84;5032542;28;20022;-85
2022/03/28 09:00:04;;;;;;;31.40;13.80;;;;;;;8.53;74.50;102262.63;5032477;28;20400;-85
2022/03/28 09:02:47;;;;;;;28.73;13.35;;;;;;;8.60;73.67;102266.13;5032841;28;20017;-85
2022/03/28 09:05:14;;;;;;;28.67;13.70;;;;;;;8.67;74.10;102267.00;5013682;28;20503;-85
2022/03/28 09:07:40;;;;;;;32.50;14.65;;;;;;;8.74;74.82;102260.97;5036260;28;20099;-85
2022/03/28 09:10:11;;;;;;;33.17;13.70;;;;;;;8.80;73.80;102261.88;5033256;28;20120;-85
2022/03/28 09:12:41;;;;;;;35.10;14.27;;;;;;;8.88;73.52;102255.84;5032147;28;20380;-85
2022/03/28 09:15:09;;;;;;;33.55;14.75;;;;;;;8.95;74.08;102257.63;5044203;28;20030;-85
2022/03/28 09:17:39;;;;;;;27.90;13.98;;;;;;;9.01;73.36;102249.84;5017222;28;20028;-85
2022/03/28 09:20:05;;;;;;;35.47;14.07;;;;;;;9.10;74.05;102257.69;5032615;28;20091;-85
2022/03/28 09:22:33;;;;;;;32.10;14.80;;;;;;;9.20;73.87;102247.31;5031569;28;20030;-85
2022/03/28 09:25:00;;;;;;;31.27;14.32;;;;;;;9.29;72.36;102251.66;5032114;28;20036;-85
2022/03/28 09:27:31;;;;;;;34.28;14.75;;;;;;;9.35;72.35;102243.91;5036679;28;20536;-85
2022/03/28 09:29:56;;;;;;;33.70;13.50;;;;;;;9.41;72.16;102247.38;5019819;28;20132;-85
2022/03/28 09:32:25;;;;;;;32.10;13.93;;;;;;;9.49;73.01;102246.50;5032340;28;20121;-85
2022/03/28 09:35:03;;;;;;;36.22;14.90;;;;;;;9.57;72.41;102243.03;5030837;28;20079;-85
2022/03/28 09:37:29;;;;;;;36.50;14.02;;;;;;;9.66;71.37;102246.53;5041864;28;20441;-85
2022/03/28 09:39:54;;;;;;;34.10;14.60;;;;;;;9.72;70.77;102237.00;5032454;28;20072;-85
2022/03/28 09:42:19;;;;;;;32.20;14.43;;;;;;;9.78;70.50;102240.47;5036015;28;20032;-85
2022/03/28 09:44:48;;;;;;;31.33;13.75;;;;;;;9.85;72.13;102237.88;5032772;28;20414;-85
2022/03/28 09:47:21;;;;;;;37.78;14.57;;;;;;;9.91;70.95;102230.91;5033148;28;20021;-85
2022/03/28 09:49:49;;;;;;;34.42;14.35;;;;;;;9.98;70.38;102232.66;5033257;28;20025;-85
2022/03/28 09:52:17;;;;;;;31.35;14.30;;;;;;;10.04;70.03;102227.47;5033035;28;20048;-85
2022/03/28 09:54:50;;;;;;;34.67;14.85;;;;;;;10.08;69.39;102218.78;5015173;28;20049;-85
2022/03/28 09:57:23;;;;;;;35.55;15.15;;;;;;;10.15;69.23;102220.50;5032841;28;20044;-85
2022/03/28 09:59:48;;;;;;;30.90;14.88;;;;;;;10.23;69.08;102220.50;5032848;28;20372;-86
2022/03/28 10:02:25;;;;;;;30.65;14.60;;;;;;;10.31;69.06;102218.75;5033050;28;20030;-86
2022/03/28 10:04:54;;;;;;;34.28;15.25;;;;;;;10.41;69.22;102219.63;5032835;28;20068;-85
2022/03/28 10:07:20;;;;;;;37.22;14.93;;;;;;;10.50;68.51;102210.06;5032647;28;20170;-85
2022/03/28 10:09:46;;;;;;;36.40;15.07;;;;;;;10.59;68.64;102212.63;5032847;28;20077;-85
2022/03/28 10:12:12;;;;;;;35.75;15.25;;;;;;;10.65;67.42;102207.38;5032632;28;20320;-86
2022/03/28 10:14:38;;;;;;;32.75;15.15;;;;;;;10.72;68.12;102206.50;5032643;28;20108;-85
2022/03/28 10:17:04;;;;;;;32.03;14.77;;;;;;;10.80;67.69;102205.59;5032582;28;20037;-86
2022/03/28 10:19:36;;;;;;;35.08;15.60;;;;;;;10.91;67.76;102206.41;5031583;28;20425;-85
2022/03/28 10:22:06;;;;;;;34.55;14.98;;;;;;;10.98;67.29;102202.91;5032508;28;20025;-86
2022/03/28 10:24:34;;;;;;;33.13;15.32;;;;;;;11.05;65.68;102198.50;5030498;28;20104;-85
2022/03/28 10:27:02;;;;;;;33.70;15.32;;;;;;;11.11;65.12;102198.50;5012771;28;20476;-86
2022/03/28 10:29:39;;;;;;;30.45;14.70;;;;;;;11.17;66.74;102200.19;5030874;28;20052;-86
2022/03/28 10:32:22;;;;;;;32.63;14.50;;;;;;;11.24;65.80;102188.84;5039379;28;20110;-85
2022/03/28 10:34:52;;;;;;;30.52;13.73;;;;;;;11.28;64.12;102185.34;5037148;28;20037;-84
2022/03/28 10:37:49;;;;;;;32.03;15.20;;;;;;;11.34;65.15;102180.09;5036907;28;20067;-87
2022/03/28 10:40:17;;;;;;;33.53;14.00;;;;;;;11.39;64.28;102173.13;5039618;28;20037;-85
2022/03/28 10:43:01;;;;;;;33.20;14.90;;;;;;;11.46;65.06;102162.63;5040051;28;20033;-86
2022/03/28 10:45:36;;;;;;;31.20;14.38;;;;;;;11.56;64.38;102164.28;5040305;28;20068;-85
2022/03/28 10:48:03;;;;;;;31.67;14.20;;;;;;;11.63;63.48;102165.09;5038001;28;20028;-86
2022/03/28 10:50:51;;;;;;;28.45;14.20;;;;;;;11.68;62.97;102165.94;5039054;28;20033;-86
2022/03/28 10:53:33;;;;;;;29.88;14.00;;;;;;;11.74;63.77;102160.66;5017601;28;20496;-85
2022/03/28 10:56:06;;;;;;;31.98;14.68;;;;;;;11.80;63.02;102157.09;5037679;28;20032;-84
2022/03/28 10:58:43;;;;;;;31.15;14.20;;;;;;;11.89;64.39;102148.31;5039521;28;20384;-85
2022/03/28 11:01:08;;;;;;;29.48;14.07;;;;;;;11.99;63.23;102148.25;5038548;28;20056;-85
2022/03/28 11:03:35;;;;;;;30.30;14.13;;;;;;;12.11;62.10;102146.41;5038933;28;20025;-86
2022/03/28 11:06:01;;;;;;;29.42;13.68;;;;;;;12.19;62.62;102144.56;5038228;28;20027;-85
2022/03/28 11:08:59;;;;;;;30.75;14.30;;;;;;;12.28;62.57;102147.09;5021713;28;20419;-85
2022/03/28 11:11:32;;;;;;;33.15;14.23;;;;;;;12.33;58.54;102136.59;5039865;28;20024;-85
2022/03/28 11:14:04;;;;;;;29.38;13.90;;;;;;;12.38;58.57;102137.38;5042233;28;20078;-85
2022/03/28 11:16:52;;;;;;;30.95;13.90;;;;;;;12.45;59.76;102138.19;5037845;28;20032;-83
2022/03/28 11:19:21;;;;;;;28.23;14.35;;;;;;;12.52;58.33;102129.38;5036183;28;20083;-82